Time;durP1;ratioP1;P1;durP2;ratioP2;P2;SDS_P1;SDS_P2;PMS_P1;PMS_P2;Temp;Humidity;BMP_temperature;BMP_pressure;BME280_temperature;BME280_humidity;BME280_pressure;Samples;Min_cycle;Max_cycle;Signal;HPM_P1;HPM_P2
2020/12/01 00:00:18;;;;;;;67.72;42.17;;;1.00;84.10;;;;;;5052854;28;20032;-47
2020/12/01 00:02:44;;;;;;;65.72;41.92;;;1.20;83.40;;;;;;5052758;28;20068;-47
2020/12/01 00:05:12;;;;;;;91.18;58.97;;;1.20;82.40;;;;;;5033988;28;20076;-48
2020/12/01 00:07:38;;;;;;;78.68;48.05;;;1.40;81.30;;;;;;5052805;28;20056;-49
2020/12/01 00:10:05;;;;;;;83.38;50.95;;;1.40;80.70;;;;;;5052831;28;20413;-49
2020/12/01 00:12:31;;;;;;;86.85;54.83;;;1.20;81.40;;;;;;5017763;28;20041;-48
2020/12/01 00:14:57;;;;;;;89.00;54.10;;;1.10;81.90;;;;;;5052481;28;20116;-49
2020/12/01 00:17:22;;;;;;;75.50;47.58;;;1.00;82.60;;;;;;5052706;28;20035;-48
2020/12/01 00:19:48;;;;;;;80.05;49.90;;;1.10;81.90;;;;;;5050627;28;20083;-48
2020/12/01 00:22:14;;;;;;;79.60;48.92;;;1.20;80.90;;;;;;5036254;28;20090;-49
2020/12/01 00:24:40;;;;;;;82.13;50.25;;;1.20;80.80;;;;;;5056200;28;20392;-49
2020/12/01 00:27:06;;;;;;;80.55;49.08;;;1.00;82.40;;;;;;5056261;28;20059;-48
2020/12/01 00:29:32;;;;;;;85.32;50.97;;;0.70;83.50;;;;;;5055766;28;20105;-49
2020/12/01 00:31:58;;;;;;;82.35;49.72;;;0.50;84.60;;;;;;5055991;28;20112;-48
2020/12/01 00:34:23;;;;;;;81.45;51.05;;;0.30;85.10;;;;;;5037317;28;20045;-49
2020/12/01 00:36:49;;;;;;;84.75;49.17;;;0.30;85.80;;;;;;5056036;28;20056;-49
2020/12/01 00:39:15;;;;;;;76.95;47.15;;;0.30;86.50;;;;;;5056202;28;20033;-48
2020/12/01 00:41:40;;;;;;;80.22;47.15;;;0.40;85.80;;;;;;5055903;28;20109;-49
2020/12/01 00:44:06;;;;;;;71.55;45.47;;;0.40;85.50;;;;;;5055717;28;20028;-48
2020/12/01 00:46:32;;;;;;;70.95;44.28;;;0.30;85.80;;;;;;5053870;28;20048;-48
2020/12/01 00:48:58;;;;;;;69.97;44.20;;;0.40;86.60;;;;;;5055911;28;20038;-48
2020/12/01 00:51:24;;;;;;;70.55;45.63;;;0.20;86.80;;;;;;5036973;28;20391;-48
2020/12/01 00:53:50;;;;;;;76.47;45.13;;;0.20;86.40;;;;;;5055689;28;20029;-48
2020/12/01 00:56:20;;;;;;;72.68;44.45;;;0.30;86.70;;;;;;5055746;28;20028;-49
2020/12/01 00:58:46;;;;;;;70.80;44.38;;;0.40;86.20;;;;;;5036821;28;20044;-50
2020/12/01 01:01:12;;;;;;;91.05;51.08;;;0.40;86.00;;;;;;5036949;28;20051;-48
2020/12/01 01:03:37;;;;;;;84.63;49.35;;;0.70;84.50;;;;;;5055485;28;20476;-48
2020/12/01 01:06:03;;;;;;;75.25;46.22;;;0.80;83.30;;;;;;5055294;28;20029;-48
2020/12/01 01:08:29;;;;;;;65.70;41.10;;;0.80;82.60;;;;;;5055571;28;20029;-49
2020/12/01 01:10:55;;;;;;;60.97;40.72;;;0.80;83.00;;;;;;5036575;28;20431;-48
2020/12/01 01:13:21;;;;;;;64.30;41.38;;;0.90;82.40;;;;;;5055043;28;20025;-49
2020/12/01 01:15:47;;;;;;;66.32;40.70;;;0.90;82.20;;;;;;5055501;28;20499;-48
2020/12/01 01:18:13;;;;;;;64.80;40.55;;;1.00;81.80;;;;;;5055181;28;20032;-50
2020/12/01 01:20:38;;;;;;;60.75;39.53;;;1.20;81.20;;;;;;5055189;28;20537;-48
2020/12/01 01:23:04;;;;;;;64.85;42.42;;;1.30;80.70;;;;;;5055256;28;20491;-49
2020/12/01 01:25:30;;;;;;;71.75;44.80;;;1.20;80.20;;;;;;5054896;28;20485;-48
2020/12/01 01:27:55;;;;;;;72.50;45.45;;;1.10;80.40;;;;;;5055122;28;20040;-49
2020/12/01 01:30:24;;;;;;;85.13;48.05;;;1.00;80.60;;;;;;5055151;28;20109;-48
2020/12/01 01:32:51;;;;;;;84.18;49.42;;;0.60;82.30;;;;;;5054949;28;20032;-48
2020/12/01 01:35:17;;;;;;;104.25;60.42;;;0.40;82.80;;;;;;5054793;28;20040;-49
2020/12/01 01:37:43;;;;;;;100.20;58.22;;;0.30;83.20;;;;;;5055024;28;20434;-49
2020/12/01 01:40:20;;;;;;;88.75;53.45;;;0.20;84.20;;;;;;5054811;28;20107;-48
2020/12/01 01:42:46;;;;;;;78.90;47.97;;;0.20;84.60;;;;;;5036137;28;20044;-50
2020/12/01 01:45:12;;;;;;;72.82;44.67;;;0.30;84.90;;;;;;5036269;28;20369;-48
2020/12/01 01:47:38;;;;;;;69.07;43.42;;;0.60;83.00;;;;;;5054571;28;20067;-49
2020/12/01 01:50:13;;;;;;;81.50;49.97;;;1.00;81.70;;;;;;5054572;28;20029;-48
2020/12/01 01:52:41;;;;;;;78.80;45.70;;;1.10;80.10;;;;;;5054746;28;20029;-49
2020/12/01 01:55:20;;;;;;;82.88;49.15;;;0.80;81.60;;;;;;5054297;28;20037;-48
2020/12/01 01:57:51;;;;;;;79.45;47.22;;;0.70;81.70;;;;;;5054268;28;20052;-49
2020/12/01 02:01:06;;;;;;;72.63;45.55;;;0.80;81.60;;;;;;5054511;28;20060;-49
2020/12/01 02:03:34;;;;;;;87.32;49.60;;;0.70;81.60;;;;;;5054067;28;20481;-48
2020/12/01 02:06:00;;;;;;;71.13;45.40;;;0.40;82.90;;;;;;5054704;28;20028;-48
2020/12/01 02:08:27;;;;;;;85.72;50.72;;;0.40;83.20;;;;;;5054243;28;20527;-49
2020/12/01 02:10:55;;;;;;;73.18;45.90;;;0.50;82.40;;;;;;5054291;28;20159;-48
2020/12/01 02:14:07;;;;;;;74.97;46.72;;;0.70;81.20;;;;;;5054262;28;20040;-48
2020/12/01 02:16:35;;;;;;;71.28;44.22;;;0.70;81.10;;;;;;5012142;28;20034;-49
2020/12/01 02:19:01;;;;;;;74.60;44.75;;;0.60;81.20;;;;;;5012281;28;20040;-49
2020/12/01 02:21:35;;;;;;;69.18;42.53;;;0.70;80.80;;;;;;5012341;28;20540;-48
2020/12/01 02:24:04;;;;;;;64.57;41.58;;;0.90;80.00;;;;;;5012113;28;20103;-49
2020/12/01 02:26:31;;;;;;;68.75;44.30;;;1.00;79.40;;;;;;5012087;28;20026;-49
2020/12/01 02:28:57;;;;;;;65.82;41.53;;;1.10;78.20;;;;;;5012207;28;20168;-48
2020/12/01 02:31:23;;;;;;;75.55;47.05;;;1.20;78.10;;;;;;5012178;28;20042;-49
2020/12/01 02:33:49;;;;;;;82.97;51.40;;;1.30;77.10;;;;;;5011923;28;20053;-48
2020/12/01 02:36:15;;;;;;;72.78;48.30;;;0.90;78.80;;;;;;5012092;28;20033;-49
2020/12/01 02:38:42;;;;;;;78.05;46.83;;;0.90;79.70;;;;;;5012125;28;20030;-49
2020/12/01 02:41:08;;;;;;;80.68;47.55;;;0.70;79.80;;;;;;4979202;28;20038;-48
2020/12/01 02:43:34;;;;;;;74.55;44.65;;;0.90;79.30;;;;;;5011507;28;20022;-49
2020/12/01 02:46:00;;;;;;;78.90;48.42;;;1.10;78.90;;;;;;5012015;28;20042;-48
2020/12/01 02:48:25;;;;;;;86.47;52.05;;;1.20;78.10;;;;;;4995223;28;20042;-48
2020/12/01 02:50:51;;;;;;;89.75;54.35;;;1.20;77.50;;;;;;5011843;28;20084;-49
2020/12/01 02:53:17;;;;;;;94.03;53.92;;;1.20;78.30;;;;;;5031988;28;20033;-49
2020/12/01 02:55:43;;;;;;;120.47;59.15;;;1.40;78.60;;;;;;5053477;28;20108;-48
2020/12/01 02:58:08;;;;;;;141.30;65.22;;;1.40;78.60;;;;;;5053780;28;20060;-48
2020/12/01 03:00:34;;;;;;;196.65;64.13;;;1.60;78.60;;;;;;5053955;28;20068;-48
2020/12/01 03:03:00;;;;;;;179.30;64.00;;;1.30;79.20;;;;;;5034715;28;20487;-49
2020/12/01 03:05:26;;;;;;;171.63;60.80;;;1.10;80.30;;;;;;5034832;28;20672;-48
2020/12/01 03:07:52;;;;;;;164.73;60.58;;;1.10;80.20;;;;;;5053544;28;20025;-49
2020/12/01 03:10:19;;;;;;;193.90;60.60;;;0.70;79.90;;;;;;5053123;28;20465;-48
2020/12/01 03:12:45;;;;;;;181.05;59.20;;;0.40;82.00;;;;;;5053238;28;20024;-48
2020/12/01 03:15:13;;;;;;;146.30;59.53;;;0.20;83.20;;;;;;5053564;28;20033;-48
2020/12/01 03:17:39;;;;;;;140.00;57.97;;;0.40;82.60;;;;;;5053158;28;20037;-49
2020/12/01 03:20:05;;;;;;;164.00;55.50;;;0.40;83.10;;;;;;5053723;28;20104;-49
2020/12/01 03:22:31;;;;;;;135.55;54.70;;;0.10;82.00;;;;;;5053292;28;20132;-48
2020/12/01 03:24:57;;;;;;;158.23;53.30;;;0.00;82.90;;;;;;5053024;28;20512;-49
2020/12/01 03:27:23;;;;;;;135.40;53.90;;;-0.10;83.20;;;;;;5053522;28;20082;-49
2020/12/01 03:29:49;;;;;;;194.68;54.97;;;0.10;82.60;;;;;;5053126;28;20078;-48
2020/12/01 03:32:14;;;;;;;190.63;56.47;;;-0.10;82.60;;;;;;5052948;28;20052;-48
2020/12/01 03:34:40;;;;;;;173.98;55.70;;;-0.10;82.60;;;;;;5053134;28;20033;-48
2020/12/01 03:37:06;;;;;;;196.52;58.00;;;-0.20;83.90;;;;;;5053311;28;20025;-49
2020/12/01 03:39:32;;;;;;;191.18;52.80;;;-0.40;84.50;;;;;;5053114;28;20024;-49
2020/12/01 03:41:58;;;;;;;193.68;57.47;;;-0.20;83.70;;;;;;5053033;28;20032;-48
2020/12/01 03:44:28;;;;;;;147.27;53.88;;;-0.30;84.20;;;;;;5017985;28;20044;-48
2020/12/01 03:46:54;;;;;;;172.05;56.65;;;-0.30;84.50;;;;;;5052841;28;20469;-50
2020/12/01 03:49:20;;;;;;;176.40;50.78;;;-0.20;83.30;;;;;;5052667;28;20388;-48
2020/12/01 03:51:46;;;;;;;186.45;51.00;;;-0.20;83.10;;;;;;5052470;28;20029;-49
2020/12/01 03:54:12;;;;;;;156.43;51.03;;;-0.40;83.80;;;;;;5052895;28;20090;-49
2020/12/01 03:56:37;;;;;;;147.27;49.25;;;-0.40;84.50;;;;;;5035864;28;20045;-48
2020/12/01 03:59:03;;;;;;;191.35;48.13;;;-0.20;83.60;;;;;;5056816;28;20118;-48
2020/12/01 04:01:29;;;;;;;209.85;52.30;;;-0.30;83.30;;;;;;5056976;28;20055;-47
2020/12/01 04:03:55;;;;;;;159.23;49.20;;;-0.50;84.20;;;;;;5056507;28;20057;-48
2020/12/01 04:06:20;;;;;;;135.02;48.55;;;-0.40;84.60;;;;;;5056887;28;20028;-48
2020/12/01 04:08:46;;;;;;;153.65;47.97;;;-0.20;83.40;;;;;;5056556;28;20021;-50
2020/12/01 04:11:12;;;;;;;114.10;46.38;;;-0.10;81.70;;;;;;5056533;28;20099;-49
2020/12/01 04:13:37;;;;;;;127.22;46.45;;;0.20;81.70;;;;;;5056519;28;20036;-49
2020/12/01 04:16:03;;;;;;;181.65;51.40;;;0.30;80.10;;;;;;5056525;28;20063;-48
2020/12/01 04:18:29;;;;;;;158.80;53.20;;;0.20;80.10;;;;;;5056587;28;20025;-49
2020/12/01 04:20:55;;;;;;;132.05;49.45;;;0.20;79.80;;;;;;5056070;28;20473;-49
2020/12/01 04:23:21;;;;;;;140.75;49.08;;;0.20;80.50;;;;;;5037454;28;20037;-48
2020/12/01 04:25:46;;;;;;;121.97;44.05;;;0.20;79.90;;;;;;5056268;28;20472;-48
2020/12/01 04:28:12;;;;;;;86.80;42.63;;;0.20;79.40;;;;;;5037670;28;20411;-49
2020/12/01 04:30:38;;;;;;;94.90;43.05;;;0.40;79.50;;;;;;5037423;28;20047;-48
2020/12/01 04:33:04;;;;;;;97.88;43.13;;;0.50;77.90;;;;;;5037222;28;20380;-48
2020/12/01 04:35:29;;;;;;;118.97;45.35;;;0.40;77.50;;;;;;5056124;28;20041;-49
2020/12/01 04:38:02;;;;;;;105.07;43.22;;;0.20;76.70;;;;;;5055956;28;20025;-48
2020/12/01 04:40:32;;;;;;;86.45;40.72;;;-0.20;78.60;;;;;;5055857;28;20087;-48
2020/12/01 04:43:20;;;;;;;120.32;42.28;;;-0.20;79.50;;;;;;5056057;28;20112;-48
2020/12/01 04:45:48;;;;;;;103.45;39.78;;;-0.40;80.00;;;;;;5023454;28;20535;-48
2020/12/01 04:48:45;;;;;;;75.57;41.85;;;-0.50;80.50;;;;;;5055657;28;20021;-48
2020/12/01 04:51:30;;;;;;;81.03;41.15;;;-0.30;80.10;;;;;;5055151;28;20037;-49
2020/12/01 04:54:14;;;;;;;110.10;48.83;;;-0.10;78.60;;;;;;5055403;28;20485;-49
2020/12/01 04:56:39;;;;;;;77.07;41.95;;;-0.10;78.10;;;;;;5055961;28;20029;-48
2020/12/01 04:59:39;;;;;;;86.93;41.17;;;-0.30;78.30;;;;;;5055534;28;20021;-49
2020/12/01 05:02:36;;;;;;;102.20;42.53;;;-0.30;78.10;;;;;;5055108;28;20025;-49
2020/12/01 05:05:41;;;;;;;107.35;41.15;;;-0.50;78.30;;;;;;5055750;28;20449;-49
2020/12/01 05:08:24;;;;;;;91.70;43.38;;;-0.90;80.80;;;;;;5031660;28;20043;-48
2020/12/01 05:10:52;;;;;;;115.95;48.85;;;-1.20;82.80;;;;;;5055350;28;20029;-49
2020/12/01 05:13:30;;;;;;;96.82;46.40;;;-1.30;83.70;;;;;;5055179;28;20020;-48
2020/12/01 05:16:00;;;;;;;78.70;44.33;;;-1.50;84.90;;;;;;5055107;28;20076;-49
2020/12/01 05:18:30;;;;;;;88.53;45.08;;;-1.50;85.40;;;;;;5055375;28;20035;-49
2020/12/01 05:21:05;;;;;;;76.35;43.95;;;-1.60;85.20;;;;;;5055295;28;20029;-48
2020/12/01 05:23:44;;;;;;;78.80;45.33;;;-1.60;85.40;;;;;;5054864;28;20104;-48
2020/12/01 05:26:15;;;;;;;82.35;47.28;;;-1.60;85.70;;;;;;5055113;28;20036;-49
2020/12/01 05:28:53;;;;;;;108.38;54.75;;;-1.60;84.70;;;;;;5055198;28;20075;-48
2020/12/01 05:31:22;;;;;;;106.72;58.03;;;-1.10;83.30;;;;;;5054696;28;20025;-48
2020/12/01 05:34:03;;;;;;;88.30;49.20;;;-1.10;82.30;;;;;;5054978;28;20025;-48
2020/12/01 05:36:30;;;;;;;80.78;46.28;;;-1.10;81.60;;;;;;5055024;28;20025;-48
2020/12/01 05:39:03;;;;;;;78.80;45.92;;;-1.20;82.10;;;;;;5054748;28;20028;-48
2020/12/01 05:41:31;;;;;;;77.70;43.28;;;-1.40;82.50;;;;;;5036145;28;20033;-48
2020/12/01 05:44:00;;;;;;;73.65;43.38;;;-1.30;82.60;;;;;;5054854;28;20021;-49
2020/12/01 05:46:41;;;;;;;71.28;42.88;;;-1.20;82.40;;;;;;5054631;28;20040;-48
2020/12/01 05:49:28;;;;;;;69.65;43.67;;;-1.30;82.60;;;;;;5054603;28;20104;-49
2020/12/01 05:52:08;;;;;;;76.35;43.15;;;-0.90;81.40;;;;;;5055061;28;20451;-48
2020/12/01 05:54:40;;;;;;;75.68;45.80;;;-0.50;80.00;;;;;;5052504;28;20041;-49
2020/12/01 05:57:22;;;;;;;80.60;47.55;;;-0.40;78.20;;;;;;5054689;28;20048;-49
2020/12/01 06:00:06;;;;;;;85.60;52.22;;;-0.30;77.20;;;;;;5054800;28;20349;-48
2020/12/01 06:02:43;;;;;;;119.53;69.13;;;-0.30;78.20;;;;;;5054148;28;20083;-48
2020/12/01 06:05:14;;;;;;;119.63;69.93;;;-0.30;77.80;;;;;;5054264;28;20032;-48
2020/12/01 06:07:44;;;;;;;109.47;68.90;;;-0.10;76.70;;;;;;5054244;28;20055;-48
2020/12/01 06:10:34;;;;;;;108.95;62.58;;;0.20;76.70;;;;;;5054270;28;20025;-49
2020/12/01 06:13:15;;;;;;;108.35;58.40;;;0.30;76.50;;;;;;5053805;28;20028;-49
2020/12/01 06:15:58;;;;;;;97.50;56.65;;;0.30;74.80;;;;;;5053478;28;20477;-48
2020/12/01 06:18:42;;;;;;;95.97;52.38;;;0.20;75.60;;;;;;5052546;28;20033;-48
2020/12/01 06:21:10;;;;;;;86.30;50.95;;;0.30;75.80;;;;;;5051930;28;20025;-48
2020/12/01 06:24:19;;;;;;;88.57;49.38;;;0.50;75.70;;;;;;5053760;28;20436;-50
2020/12/01 06:27:12;;;;;;;85.30;50.92;;;0.70;75.60;;;;;;4973103;28;20038;-50
2020/12/01 06:30:06;;;;;;;91.68;52.85;;;0.90;74.60;;;;;;4973146;28;20479;-49
2020/12/01 06:32:57;;;;;;;88.90;53.38;;;1.00;73.70;;;;;;4958174;28;20047;-49
2020/12/01 06:35:23;;;;;;;97.45;58.80;;;2.30;74.60;;;;;;4918343;29;20051;-49
2020/12/01 06:38:16;;;;;;;88.93;54.65;;;3.50;72.00;;;;;;4934388;29;20416;-49
2020/12/01 06:40:50;;;;;;;106.32;61.63;;;4.80;65.40;;;;;;4934386;29;20555;-50
2020/12/01 06:43:25;;;;;;;101.13;60.78;;;6.10;62.30;;;;;;4933866;29;20592;-50
2020/12/01 06:45:56;;;;;;;88.80;58.05;;;7.80;58.60;;;;;;4918379;29;20039;-49
2020/12/01 06:48:40;;;;;;;88.03;53.03;;;9.10;54.30;;;;;;4934401;29;20152;-49
2020/12/01 06:51:11;;;;;;;80.68;54.92;;;9.20;50.80;;;;;;4934428;29;20435;-49
2020/12/01 06:53:39;;;;;;;91.70;59.60;;;9.70;47.00;;;;;;4934045;29;20459;-50
2020/12/01 06:56:04;;;;;;;92.97;62.00;;;10.70;48.10;;;;;;4931955;29;20087;-49
2020/12/01 06:58:40;;;;;;;108.40;68.88;;;11.60;48.30;;;;;;4918192;29;20429;-49
2020/12/01 07:01:23;;;;;;;91.15;62.90;;;12.10;44.40;;;;;;4918056;29;20047;-49
2020/12/01 07:04:03;;;;;;;80.85;55.97;;;13.20;43.40;;;;;;5001606;28;20038;-50
2020/12/01 07:06:28;;;;;;;72.57;52.35;;;14.30;41.30;;;;;;5011542;28;20482;-50
2020/12/01 07:09:08;;;;;;;71.75;47.75;;;14.50;38.90;;;;;;5011181;28;20216;-50
2020/12/01 07:11:47;;;;;;;61.38;43.97;;;14.60;40.00;;;;;;4982728;28;20038;-50
2020/12/01 07:14:31;;;;;;;71.40;47.47;;;15.00;39.30;;;;;;5014262;28;20466;-51
2020/12/01 07:16:57;;;;;;;64.93;45.25;;;14.90;38.30;;;;;;5031240;28;20064;-50
2020/12/01 07:19:43;;;;;;;66.22;46.35;;;15.00;38.00;;;;;;5031203;28;20056;-50
2020/12/01 07:22:40;;;;;;;59.05;43.15;;;14.80;37.90;;;;;;5030954;28;20037;-51
2020/12/01 07:25:21;;;;;;;61.50;42.75;;;15.10;38.40;;;;;;5023363;28;20052;-50
2020/12/01 07:28:01;;;;;;;64.32;42.80;;;15.80;37.70;;;;;;5031352;28;20111;-51
2020/12/01 07:30:28;;;;;;;57.60;40.92;;;15.10;35.60;;;;;;5032345;28;20485;-50
2020/12/01 07:32:57;;;;;;;62.03;41.13;;;16.00;38.30;;;;;;5035464;28;20041;-48
2020/12/01 07:35:31;;;;;;;51.15;40.35;;;16.80;36.10;;;;;;5035117;28;20048;-48
2020/12/01 07:38:20;;;;;;;56.55;41.38;;;16.40;36.00;;;;;;5035285;28;20094;-48
2020/12/01 07:40:49;;;;;;;58.58;41.08;;;15.70;36.20;;;;;;4957103;29;20535;-47
2020/12/01 07:43:17;;;;;;;54.17;38.63;;;15.70;35.50;;;;;;4986408;28;20042;-47
2020/12/01 07:45:44;;;;;;;57.00;39.72;;;16.50;36.30;;;;;;4994945;28;20061;-48
2020/12/01 07:48:18;;;;;;;57.45;41.78;;;15.80;35.80;;;;;;4995288;28;20161;-48
2020/12/01 07:50:44;;;;;;;54.83;40.22;;;15.70;36.30;;;;;;4978830;28;20034;-47
2020/12/01 07:53:19;;;;;;;54.80;41.33;;;15.00;37.50;;;;;;4994931;28;20046;-47
2020/12/01 07:56:00;;;;;;;57.67;41.33;;;16.50;36.40;;;;;;4995772;28;20046;-48
2020/12/01 07:58:28;;;;;;;58.53;42.92;;;15.70;36.70;;;;;;4994044;28;20820;-48
2020/12/01 08:00:55;;;;;;;58.53;42.85;;;15.40;36.80;;;;;;4994893;28;20524;-49
2020/12/01 08:03:26;;;;;;;54.10;41.13;;;17.20;35.40;;;;;;4992542;28;20037;-48
2020/12/01 08:05:53;;;;;;;57.17;44.08;;;17.80;34.80;;;;;;4995517;28;20027;-48
2020/12/01 08:08:21;;;;;;;62.47;46.83;;;17.40;34.30;;;;;;4993263;28;20105;-48
2020/12/01 08:10:50;;;;;;;57.00;42.05;;;17.40;33.80;;;;;;4994099;28;20041;-48
2020/12/01 08:13:17;;;;;;;54.25;40.85;;;18.10;33.90;;;;;;4978910;28;20065;-47
2020/12/01 08:15:44;;;;;;;53.55;41.72;;;18.40;33.70;;;;;;4994444;28;20049;-48
2020/12/01 08:18:14;;;;;;;54.40;41.75;;;17.40;33.70;;;;;;5022689;28;20497;-48
2020/12/01 08:20:42;;;;;;;55.63;42.17;;;18.40;32.70;;;;;;5049542;28;20095;-47
2020/12/01 08:23:20;;;;;;;56.72;41.15;;;19.90;31.60;;;;;;5040870;28;20394;-50
2020/12/01 08:25:54;;;;;;;57.25;43.00;;;19.80;31.00;;;;;;5047456;28;20389;-51
2020/12/01 08:28:28;;;;;;;54.80;40.83;;;20.00;30.80;;;;;;5008539;28;20088;-49
2020/12/01 08:31:03;;;;;;;54.85;42.20;;;19.40;30.40;;;;;;5014221;28;20575;-48
2020/12/01 08:34:12;;;;;;;53.28;39.58;;;17.30;32.10;;;;;;5014116;28;20097;-50
2020/12/01 08:36:43;;;;;;;53.22;40.15;;;17.80;32.10;;;;;;4923582;29;20053;-50
2020/12/01 08:39:28;;;;;;;49.90;39.05;;;17.40;33.90;;;;;;4955704;29;20057;-47
2020/12/01 08:42:13;;;;;;;54.97;40.00;;;17.60;33.00;;;;;;4955223;28;20047;-50
2020/12/01 08:45:14;;;;;;;47.80;38.67;;;17.70;33.70;;;;;;4955656;29;20031;-50
2020/12/01 08:47:44;;;;;;;50.28;40.78;;;17.70;33.50;;;;;;4920120;29;20258;-50
2020/12/01 08:50:35;;;;;;;49.95;38.95;;;17.80;33.30;;;;;;4934617;29;20494;-49
2020/12/01 08:53:07;;;;;;;51.15;39.70;;;18.70;32.80;;;;;;4845532;29;20037;-49
2020/12/01 08:55:46;;;;;;;54.10;43.17;;;17.80;32.80;;;;;;4858279;29;20053;-50
2020/12/01 08:58:34;;;;;;;53.88;42.90;;;18.50;33.60;;;;;;4860388;29;20574;-49
2020/12/01 09:01:05;;;;;;;54.33;43.20;;;17.10;33.80;;;;;;4865777;29;20565;-51
2020/12/01 09:03:33;;;;;;;53.05;45.03;;;17.40;35.00;;;;;;4882430;29;20135;-49
2020/12/01 09:05:59;;;;;;;61.00;54.35;;;17.50;34.30;;;;;;4898300;29;20033;-49
2020/12/01 09:12:05;;;;;;;54.17;44.95;;;16.20;34.80;;;;;;4898365;29;20041;-50
2020/12/01 09:22:21;;;;;;;104.40;96.35;;;15.10;38.40;;;;;;4916741;29;20032;-49
2020/12/01 09:24:48;;;;;;;59.55;53.33;;;13.70;38.60;;;;;;4963357;28;20043;-49
2020/12/01 09:27:17;;;;;;;63.50;57.25;;;14.80;39.00;;;;;;4974254;28;20027;-49
2020/12/01 09:29:51;;;;;;;59.28;52.65;;;15.20;37.80;;;;;;4997761;28;20175;-49
2020/12/01 09:32:22;;;;;;;82.22;74.78;;;16.70;36.40;;;;;;5016702;28;20041;-48
2020/12/01 09:34:49;;;;;;;88.10;80.38;;;15.30;35.60;;;;;;5035991;28;20045;-50
2020/12/01 09:37:16;;;;;;;176.13;164.60;;;15.30;37.70;;;;;;5053133;28;20075;-49
2020/12/01 09:39:42;;;;;;;71.03;63.65;;;13.90;38.40;;;;;;5055211;28;20053;-49
2020/12/01 09:47:09;;;;;;;113.40;103.70;;;14.80;37.80;;;;;;5051101;28;20025;-49
2020/12/01 09:49:35;;;;;;;120.93;111.60;;;15.50;37.50;;;;;;5053284;28;20483;-49
2020/12/01 09:52:39;;;;;;;67.03;59.75;;;15.20;37.50;;;;;;5053857;28;20100;-49
2020/12/01 09:55:02;;;;;;;181.65;169.40;;;15.80;37.90;;;;;;5050348;28;20047;-49
2020/12/01 10:03:21;;;;;;;107.65;99.03;;;16.10;37.70;;;;;;5054329;28;20062;-49
2020/12/01 10:07:32;;;;;;;121.45;112.22;;;15.50;37.80;;;;;;5054126;28;20029;-49
2020/12/01 10:08:58;;;;;;;97.18;88.85;;;15.40;37.40;;;;;;5054446;28;20534;-49
2020/12/01 10:11:45;;;;;;;127.22;117.72;;;14.20;39.40;;;;;;5053682;28;20029;-49
2020/12/01 10:35:34;;;;;;;95.75;88.55;;;12.60;43.00;;;;;;4992234;28;20556;-48
2020/12/01 10:38:02;;;;;;;98.00;90.57;;;13.30;42.20;;;;;;4992369;28;20027;-49
2020/12/01 10:40:29;;;;;;;76.50;70.18;;;12.90;42.30;;;;;;4992345;28;20038;-50
2020/12/01 10:42:56;;;;;;;84.25;77.50;;;12.50;42.60;;;;;;4975666;28;20038;-48
2020/12/01 10:45:24;;;;;;;49.20;44.20;;;12.20;44.20;;;;;;4992250;28;20398;-49
2020/12/01 10:47:50;;;;;;;62.60;57.42;;;12.80;44.40;;;;;;4989373;28;20030;-49
2020/12/01 10:50:19;;;;;;;103.63;96.72;;;12.70;43.00;;;;;;4975662;28;20038;-49
2020/12/01 10:52:44;;;;;;;53.75;48.55;;;12.50;42.30;;;;;;4987263;28;20057;-49
2020/12/01 10:55:16;;;;;;;56.88;51.22;;;12.40;44.50;;;;;;4982454;28;20054;-50
2020/12/01 10:57:42;;;;;;;52.42;47.20;;;12.80;44.80;;;;;;4976747;28;20049;-49
2020/12/01 11:00:09;;;;;;;65.72;59.58;;;13.30;42.90;;;;;;4972747;28;20459;-49
2020/12/01 11:02:35;;;;;;;101.57;92.93;;;13.80;42.10;;;;;;5022646;28;20160;-49
2020/12/01 11:05:05;;;;;;;53.20;48.17;;;13.50;42.70;;;;;;5032668;28;20556;-50
2020/12/01 11:07:30;;;;;;;67.00;61.13;;;13.50;42.00;;;;;;5033529;28;20116;-45
2020/12/01 11:09:56;;;;;;;47.80;43.30;;;13.10;41.70;;;;;;5032864;28;20156;-44
2020/12/01 11:12:22;;;;;;;49.55;45.30;;;12.80;42.30;;;;;;5014818;28;20064;-45
2020/12/01 11:14:48;;;;;;;55.67;51.30;;;12.90;41.20;;;;;;4997928;28;20099;-46
2020/12/01 11:17:14;;;;;;;57.25;52.67;;;11.90;43.20;;;;;;5033438;28;20118;-46
2020/12/01 11:19:40;;;;;;;44.92;41.17;;;11.90;42.60;;;;;;5033108;28;20501;-47
2020/12/01 11:22:06;;;;;;;40.42;36.03;;;11.30;44.00;;;;;;5033263;28;20079;-46
2020/12/01 11:24:31;;;;;;;38.42;34.53;;;11.60;44.20;;;;;;5031167;28;20059;-45
2020/12/01 11:26:58;;;;;;;45.90;41.33;;;11.90;43.30;;;;;;5014720;28;20053;-51
2020/12/01 11:29:23;;;;;;;47.17;43.67;;;11.80;42.90;;;;;;5031868;28;20464;-47
2020/12/01 11:31:49;;;;;;;35.28;31.73;;;10.90;43.80;;;;;;5017123;28;20033;-47
2020/12/01 11:34:15;;;;;;;49.63;45.72;;;11.50;44.20;;;;;;4997827;28;20397;-48
2020/12/01 11:36:41;;;;;;;33.95;30.48;;;11.30;43.80;;;;;;5038342;28;20039;-47
2020/12/01 11:39:12;;;;;;;30.55;27.40;;;11.90;43.60;;;;;;5039360;28;20096;-48
2020/12/01 11:41:39;;;;;;;42.55;39.38;;;11.90;43.60;;;;;;5034376;28;20083;-47
2020/12/01 11:44:06;;;;;;;34.33;31.30;;;10.80;44.40;;;;;;5032942;28;20084;-47
2020/12/01 11:46:32;;;;;;;31.92;28.60;;;10.50;46.30;;;;;;5032952;28;20388;-47
2020/12/01 11:49:01;;;;;;;33.60;29.10;;;11.30;46.20;;;;;;5033084;28;20030;-47
2020/12/01 11:51:32;;;;;;;31.65;25.42;;;11.80;44.60;;;;;;5033230;28;20034;-47
2020/12/01 11:53:58;;;;;;;27.27;22.77;;;12.50;43.40;;;;;;5032876;28;20021;-47
2020/12/01 11:56:24;;;;;;;30.17;23.83;;;11.60;43.20;;;;;;4977947;28;20034;-48
2020/12/01 11:58:50;;;;;;;31.05;22.20;;;11.70;43.80;;;;;;5010619;28;20408;-49
2020/12/01 12:01:16;;;;;;;28.55;21.27;;;11.50;44.40;;;;;;5010645;28;20038;-47
2020/12/01 12:03:42;;;;;;;25.90;17.35;;;11.40;45.20;;;;;;5010644;28;20037;-48
2020/12/01 12:06:09;;;;;;;28.63;21.50;;;10.20;46.30;;;;;;5010767;28;20042;-47
2020/12/01 12:08:34;;;;;;;28.92;20.85;;;10.60;47.10;;;;;;5011069;28;20540;-48
2020/12/01 12:11:00;;;;;;;22.52;16.10;;;10.10;47.50;;;;;;5010726;28;20125;-48
2020/12/01 12:13:27;;;;;;;26.15;19.67;;;9.90;47.00;;;;;;5010942;28;20124;-47
2020/12/01 12:15:53;;;;;;;24.08;18.73;;;10.10;47.00;;;;;;5011001;28;20066;-48
2020/12/01 12:18:19;;;;;;;27.75;19.02;;;10.20;47.50;;;;;;5013497;28;20056;-48
2020/12/01 12:20:44;;;;;;;25.10;19.23;;;10.10;45.50;;;;;;5014708;28;20513;-47
2020/12/01 12:23:10;;;;;;;30.08;22.05;;;10.50;46.60;;;;;;5014602;28;20960;-47
2020/12/01 12:25:36;;;;;;;39.30;32.40;;;10.40;47.40;;;;;;4981550;28;20081;-47
2020/12/01 12:28:02;;;;;;;40.95;33.20;;;9.60;49.40;;;;;;5032825;28;20056;-48
2020/12/01 12:30:28;;;;;;;32.40;23.83;;;9.70;49.70;;;;;;5035812;28;20061;-48
2020/12/01 12:32:54;;;;;;;32.53;23.02;;;9.90;49.20;;;;;;5044000;28;20079;-48
2020/12/01 12:35:20;;;;;;;28.58;20.08;;;10.20;48.20;;;;;;5038185;28;20036;-48
2020/12/01 12:37:46;;;;;;;29.83;20.85;;;9.90;47.80;;;;;;5046879;28;20041;-47
2020/12/01 12:40:12;;;;;;;33.17;22.33;;;9.80;48.00;;;;;;5036241;28;20010;-47
2020/12/01 12:42:38;;;;;;;33.83;23.88;;;9.30;50.40;;;;;;5046674;28;20083;-47
2020/12/01 12:45:05;;;;;;;29.88;21.15;;;9.00;51.00;;;;;;5034284;28;20033;-48
2020/12/01 12:47:31;;;;;;;37.03;24.85;;;8.90;50.70;;;;;;5016219;28;20046;-47
2020/12/01 12:49:56;;;;;;;35.33;24.25;;;9.00;50.90;;;;;;5034793;28;20472;-48
2020/12/01 12:52:22;;;;;;;28.52;18.70;;;9.10;49.50;;;;;;5045374;28;20036;-48
2020/12/01 12:54:48;;;;;;;32.42;23.45;;;8.60;51.00;;;;;;5034558;28;20049;-47
2020/12/01 12:57:14;;;;;;;36.05;24.33;;;8.80;52.00;;;;;;5016819;28;20037;-47
2020/12/01 12:59:40;;;;;;;33.75;22.42;;;8.90;52.70;;;;;;5045048;28;20400;-45
2020/12/01 13:02:06;;;;;;;30.20;21.83;;;9.00;51.20;;;;;;5035367;28;20554;-44
2020/12/01 13:04:31;;;;;;;30.80;21.42;;;9.20;49.80;;;;;;5054502;28;20090;-47
2020/12/01 13:06:57;;;;;;;34.03;21.00;;;9.40;49.80;;;;;;5054473;28;20033;-45
2020/12/01 13:09:23;;;;;;;25.77;18.17;;;9.10;49.30;;;;;;5027815;28;20044;-50
2020/12/01 13:11:50;;;;;;;50.55;38.75;;;8.70;49.50;;;;;;5041550;28;20056;-47
2020/12/01 13:14:16;;;;;;;79.88;67.60;;;8.70;50.70;;;;;;5042412;28;20036;-47
2020/12/01 13:16:46;;;;;;;72.90;53.80;;;8.50;51.60;;;;;;5035373;28;20025;-47
2020/12/01 13:19:11;;;;;;;108.65;90.60;;;8.60;50.90;;;;;;5013131;28;20033;-48
2020/12/01 13:21:37;;;;;;;54.10;42.38;;;8.70;51.80;;;;;;5012932;28;20397;-45
2020/12/01 13:24:03;;;;;;;35.90;26.75;;;8.80;50.30;;;;;;5013248;28;20034;-48
2020/12/01 13:26:29;;;;;;;30.88;20.83;;;8.70;51.60;;;;;;5013013;28;20499;-49
2020/12/01 13:28:54;;;;;;;34.65;22.67;;;8.50;51.50;;;;;;5014486;28;20042;-48